Time;durP1;ratioP1;P1;durP2;ratioP2;P2;SDS_P1;SDS_P2;PMS_P1;PMS_P2;Temp;Humidity;BMP_temperature;BMP_pressure;BME280_temperature;BME280_humidity;BME280_pressure;Samples;Min_cycle;Max_cycle;Signal;HPM_P1;HPM_P2
2021/05/16 00:01:48;;;;;;;2.67;1.27;;;;;;;-139.48;100.00;61774.03;5000100;28;20069;-69
2021/05/16 00:04:32;;;;;;;3.53;1.98;;;;;;;-139.48;100.00;61774.03;5015165;28;20052;-69
2021/05/16 00:07:16;;;;;;;2.38;1.15;;;;;;;-139.48;100.00;61774.03;4999853;28;20048;-69
2021/05/16 00:10:00;;;;;;;2.53;1.67;;;;;;;-139.48;100.00;61774.03;4999992;28;20464;-70
2021/05/16 00:12:44;;;;;;;1.73;1.30;;;;;;;-139.48;100.00;61774.03;5013799;28;20423;-69
2021/05/16 00:15:30;;;;;;;5.35;1.70;;;;;;;-139.48;100.00;61774.03;4999792;28;20176;-69
2021/05/16 00:18:14;;;;;;;3.20;1.25;;;;;;;-139.48;100.00;61774.03;5013442;28;20516;-69
2021/05/16 00:20:57;;;;;;;2.60;1.23;;;;;;;-139.48;100.00;61774.03;5013647;28;20120;-69
2021/05/16 00:23:41;;;;;;;1.33;0.90;;;;;;;-139.48;100.00;61774.03;5014360;28;20133;-69
2021/05/16 00:26:25;;;;;;;3.83;1.83;;;;;;;-139.48;100.00;61774.03;5013265;28;20100;-69
2021/05/16 00:29:09;;;;;;;1.40;1.00;;;;;;;-139.48;100.00;61774.03;5013429;28;20049;-69
2021/05/16 00:31:53;;;;;;;6.30;1.55;;;;;;;-139.48;100.00;61774.03;5013463;28;20060;-69
2021/05/16 00:34:37;;;;;;;6.35;1.55;;;;;;;-139.48;100.00;61774.03;5013383;28;20454;-69
2021/05/16 00:37:21;;;;;;;3.88;1.23;;;;;;;-139.48;100.00;61774.03;5013363;28;20045;-69
2021/05/16 00:40:06;;;;;;;3.72;1.52;;;;;;;-139.48;100.00;61774.03;5014043;28;20052;-69
2021/05/16 00:42:50;;;;;;;2.10;1.33;;;;;;;-139.48;100.00;61774.03;5013270;28;20049;-69
2021/05/16 00:45:34;;;;;;;2.90;1.83;;;;;;;-139.48;100.00;61774.03;5013126;28;20053;-69
2021/05/16 00:48:21;;;;;;;5.20;1.60;;;;;;;-139.48;100.00;61774.03;5013067;28;20052;-69
2021/05/16 00:51:05;;;;;;;5.25;1.30;;;;;;;-139.48;100.00;61774.03;5013094;28;20107;-69
2021/05/16 00:53:49;;;;;;;3.45;1.48;;;;;;;-139.48;100.00;61774.03;4999001;28;20044;-69
2021/05/16 00:56:33;;;;;;;5.05;1.80;;;;;;;-139.48;100.00;61774.03;5012659;28;20073;-69
2021/05/16 00:59:17;;;;;;;2.55;1.55;;;;;;;-139.48;100.00;61774.03;5013513;28;20088;-69
2021/05/16 01:02:01;;;;;;;2.75;1.50;;;;;;;-139.48;100.00;61774.03;5013976;28;20115;-69
2021/05/16 01:04:44;;;;;;;4.75;1.23;;;;;;;-139.48;100.00;61774.03;5013655;28;20064;-69
2021/05/16 01:07:28;;;;;;;4.50;1.90;;;;;;;-139.48;100.00;61774.03;4998939;28;20139;-69
2021/05/16 01:10:12;;;;;;;2.10;1.30;;;;;;;-139.48;100.00;61774.03;5012803;28;20060;-69
2021/05/16 01:12:57;;;;;;;4.32;1.38;;;;;;;-139.48;100.00;61774.03;4998725;28;20053;-69
2021/05/16 01:15:43;;;;;;;3.60;1.95;;;;;;;-139.48;100.00;61774.03;5013457;28;20442;-70
2021/05/16 01:18:27;;;;;;;7.10;1.30;;;;;;;-139.48;100.00;61774.03;5012728;28;20418;-69
2021/05/16 01:21:15;;;;;;;2.97;1.77;;;;;;;-139.48;100.00;61774.03;5013673;28;20049;-69
2021/05/16 01:23:59;;;;;;;3.10;1.23;;;;;;;-139.48;100.00;61774.03;5012688;28;20506;-69
2021/05/16 01:26:47;;;;;;;3.13;0.70;;;;;;;-139.48;100.00;61774.03;5013597;28;20099;-69
2021/05/16 01:29:31;;;;;;;2.03;1.20;;;;;;;-139.48;100.00;61774.03;5012576;28;20538;-70
2021/05/16 01:32:15;;;;;;;3.30;1.25;;;;;;;-139.48;100.00;61774.03;4998751;28;20088;-69
2021/05/16 01:34:58;;;;;;;2.58;1.63;;;;;;;-139.48;100.00;61774.03;5013482;28;20063;-69
2021/05/16 01:37:42;;;;;;;3.75;1.50;;;;;;;-139.48;100.00;61774.03;5012505;28;20052;-69
2021/05/16 01:40:26;;;;;;;4.50;1.55;;;;;;;-139.48;100.00;61774.03;4998514;28;20069;-69
2021/05/16 01:43:12;;;;;;;5.00;2.35;;;;;;;-139.48;100.00;61774.03;5012744;28;20107;-69
2021/05/16 01:45:57;;;;;;;2.38;1.48;;;;;;;-139.48;100.00;61774.03;5012430;28;20099;-69
2021/05/16 01:48:41;;;;;;;5.28;1.92;;;;;;;-139.48;100.00;61774.03;4998422;28;20564;-69
2021/05/16 01:51:25;;;;;;;1.90;1.40;;;;;;;-139.48;100.00;61774.03;4998625;28;20524;-69
2021/05/16 01:54:10;;;;;;;4.78;1.92;;;;;;;-139.48;100.00;61774.03;5013425;28;20053;-69
2021/05/16 01:56:54;;;;;;;3.92;1.90;;;;;;;-139.48;100.00;61774.03;5027539;22;20058;-66
2021/05/16 01:59:38;;;;;;;2.72;1.63;;;;;;;-139.48;100.00;61774.03;4992818;28;20073;-67
2021/05/16 02:02:22;;;;;;;6.72;2.03;;;;;;;-139.48;100.00;61774.03;4992533;28;20141;-67
2021/05/16 02:05:08;;;;;;;4.97;1.80;;;;;;;-139.48;100.00;61774.03;4978913;28;20108;-67
2021/05/16 02:07:53;;;;;;;8.18;2.13;;;;;;;-139.48;100.00;61774.03;4992325;28;20046;-67
2021/05/16 02:10:37;;;;;;;5.90;2.17;;;;;;;-139.48;100.00;61774.03;4978941;28;20049;-66
2021/05/16 02:13:22;;;;;;;6.50;1.85;;;;;;;-139.48;100.00;61774.03;4995576;28;20109;-67
2021/05/16 02:16:07;;;;;;;3.40;1.85;;;;;;;-139.48;100.00;61774.03;4997543;28;20053;-67
2021/05/16 02:18:51;;;;;;;7.75;2.60;;;;;;;-139.48;100.00;61774.03;4982580;28;20074;-67
2021/05/16 02:21:36;;;;;;;5.35;2.33;;;;;;;-139.48;100.00;61774.03;4982525;28;20351;-66
2021/05/16 02:24:20;;;;;;;7.38;2.70;;;;;;;-139.48;100.00;61774.03;4996008;28;20134;-66
2021/05/16 02:27:04;;;;;;;6.88;2.53;;;;;;;-139.48;100.00;61774.03;4996081;28;20045;-66
2021/05/16 02:29:48;;;;;;;4.72;2.10;;;;;;;-139.48;100.00;61774.03;4995876;28;20100;-67
2021/05/16 02:32:32;;;;;;;6.65;2.20;;;;;;;-139.48;100.00;61774.03;4982568;28;20109;-67
2021/05/16 02:35:16;;;;;;;4.38;1.67;;;;;;;-139.48;100.00;61774.03;4996112;28;20049;-66
2021/05/16 02:38:00;;;;;;;;;;;;;;;-139.48;100.00;61774.03;4996540;28;20088;-65
2021/05/16 02:40:44;;;;;;;6.55;1.90;;;;;;;-139.48;100.00;61774.03;4996962;28;19921;-66
2021/05/16 02:43:28;;;;;;;6.07;1.90;;;;;;;-139.48;100.00;61774.03;4996903;28;20502;-66
2021/05/16 02:46:12;;;;;;;4.68;1.90;;;;;;;-139.48;100.00;61774.03;4995706;28;20118;-67
2021/05/16 02:48:56;;;;;;;7.63;2.38;;;;;;;-139.48;100.00;61774.03;4995786;28;20057;-66
2021/05/16 02:51:40;;;;;;;4.43;1.70;;;;;;;-139.48;100.00;61774.03;4995817;28;20097;-66
2021/05/16 02:54:24;;;;;;;4.68;1.95;;;;;;;-139.48;100.00;61774.03;4996662;28;20173;-66
2021/05/16 02:57:09;;;;;;;4.40;1.92;;;;;;;-139.48;100.00;61774.03;4981555;28;20529;-65
2021/05/16 02:59:53;;;;;;;5.20;2.40;;;;;;;-139.48;100.00;61774.03;4995629;28;20196;-66
2021/05/16 03:02:37;;;;;;;7.40;2.60;;;;;;;-139.48;100.00;61774.03;4995604;28;20060;-65
2021/05/16 03:05:21;;;;;;;7.88;2.58;;;;;;;-139.48;100.00;61774.03;4995314;28;20118;-66
2021/05/16 03:08:05;;;;;;;5.03;2.33;;;;;;;-139.48;100.00;61774.03;4981343;28;20054;-65
2021/05/16 03:10:49;;;;;;;3.13;1.88;;;;;;;-139.48;100.00;61774.03;4995178;28;20557;-65
2021/05/16 03:13:33;;;;;;;9.93;2.50;;;;;;;-139.48;100.00;61774.03;4995291;28;20068;-65
2021/05/16 03:16:16;;;;;;;9.13;3.13;;;;;;;-139.48;100.00;61774.03;4995244;28;20131;-66
2021/05/16 03:19:00;;;;;;;5.97;2.40;;;;;;;-139.48;100.00;61774.03;4995966;28;20558;-66
2021/05/16 03:21:44;;;;;;;7.55;2.50;;;;;;;-139.48;100.00;61774.03;4996404;28;20053;-63
2021/05/16 03:24:29;;;;;;;7.80;2.88;;;;;;;-139.48;100.00;61774.03;4995040;28;20045;-66
2021/05/16 03:27:13;;;;;;;10.50;2.60;;;;;;;-139.48;100.00;61774.03;4981130;28;20097;-66
2021/05/16 03:29:57;;;;;;;6.05;2.67;;;;;;;-139.48;100.00;61774.03;4996039;28;20053;-67
2021/05/16 03:32:41;;;;;;;7.03;3.05;;;;;;;-139.48;100.00;61774.03;4994666;28;20514;-66
2021/05/16 03:35:25;;;;;;;10.07;2.95;;;;;;;-139.48;100.00;61774.03;4995936;28;20474;-66
2021/05/16 03:38:09;;;;;;;10.02;2.80;;;;;;;-139.48;100.00;61774.03;4994578;28;20130;-67
2021/05/16 03:40:53;;;;;;;5.18;2.55;;;;;;;-139.48;100.00;61774.03;4980856;28;20053;-66
2021/05/16 03:43:37;;;;;;;5.72;2.80;;;;;;;-139.48;100.00;61774.03;4995761;28;20096;-66
2021/05/16 03:46:21;;;;;;;7.43;2.65;;;;;;;-139.48;100.00;61774.03;4994805;28;20097;-67
2021/05/16 03:49:05;;;;;;;7.20;2.70;;;;;;;-139.48;100.00;61774.03;4995603;28;20105;-66
2021/05/16 03:51:49;;;;;;;5.22;2.50;;;;;;;-139.48;100.00;61774.03;4994662;28;20410;-66
2021/05/16 03:54:33;;;;;;;7.38;2.60;;;;;;;-139.48;100.00;61774.03;4980822;28;20050;-66
2021/05/16 03:57:17;;;;;;;9.77;2.63;;;;;;;-139.48;100.00;61774.03;4995088;28;20048;-66
2021/05/16 04:00:04;;;;;;;3.63;2.00;;;;;;;-139.48;100.00;61774.03;4994422;28;20505;-66
2021/05/16 04:02:48;;;;;;;2.35;1.35;;;;;;;-139.48;100.00;61774.03;4994147;28;20053;-67
2021/05/16 04:05:32;;;;;;;7.13;2.92;;;;;;;-139.48;100.00;61774.03;4980352;28;20057;-67
2021/05/16 04:08:15;;;;;;;10.43;2.65;;;;;;;-139.48;100.00;61774.03;4994954;28;20419;-66
2021/05/16 04:10:59;;;;;;;10.73;2.72;;;;;;;-139.48;100.00;61774.03;4980571;28;20093;-66
2021/05/16 04:13:43;;;;;;;4.18;2.20;;;;;;;-139.48;100.00;61774.03;4993978;28;20415;-67
2021/05/16 04:16:27;;;;;;;9.30;2.05;;;;;;;-139.48;100.00;61774.03;4994083;28;20053;-67
2021/05/16 04:19:11;;;;;;;7.88;2.42;;;;;;;-139.48;100.00;61774.03;4994858;28;20422;-67
2021/05/16 04:21:55;;;;;;;8.63;2.85;;;;;;;-139.48;100.00;61774.03;4980338;28;20100;-66
2021/05/16 04:24:39;;;;;;;4.72;2.13;;;;;;;-139.48;100.00;61774.03;4994983;28;20053;-65
2021/05/16 04:27:23;;;;;;;5.22;1.92;;;;;;;-139.48;100.00;61774.03;4980017;28;20176;-67
2021/05/16 04:30:08;;;;;;;9.50;2.55;;;;;;;-139.48;100.00;61774.03;4994167;28;20518;-66
2021/05/16 04:32:52;;;;;;;4.85;1.55;;;;;;;-139.48;100.00;61774.03;4993689;28;20096;-67
2021/05/16 04:35:36;;;;;;;3.97;1.40;;;;;;;-139.48;100.00;61774.03;4993107;28;20045;-67
2021/05/16 04:38:20;;;;;;;3.78;1.95;;;;;;;-139.48;100.00;61774.03;4993653;28;20136;-67
2021/05/16 04:41:03;;;;;;;7.22;2.35;;;;;;;-139.48;100.00;61774.03;4994653;28;20061;-67
2021/05/16 04:43:48;;;;;;;5.00;2.00;;;;;;;-139.48;100.00;61774.03;4993673;28;20056;-67
2021/05/16 04:46:32;;;;;;;1.75;1.17;;;;;;;-139.48;100.00;61774.03;4993540;28;20045;-67
2021/05/16 04:49:16;;;;;;;4.70;1.85;;;;;;;-139.48;100.00;61774.03;4979656;28;20049;-67
2021/05/16 04:52:00;;;;;;;4.20;2.10;;;;;;;-139.48;100.00;61774.03;4994517;28;20100;-67
2021/05/16 04:54:43;;;;;;;6.85;2.05;;;;;;;-139.48;100.00;61774.03;4993475;28;20084;-67
2021/05/16 04:57:27;;;;;;;6.97;2.15;;;;;;;-139.48;100.00;61774.03;4992982;28;20513;-67
2021/05/16 05:00:12;;;;;;;4.60;2.35;;;;;;;-139.48;100.00;61774.03;4993447;28;20057;-66
2021/05/16 05:02:56;;;;;;;5.38;1.67;;;;;;;-139.48;100.00;61774.03;4994384;28;20112;-66
2021/05/16 05:05:40;;;;;;;4.25;1.77;;;;;;;-139.48;100.00;61774.03;4979374;28;20045;-67
2021/05/16 05:08:26;;;;;;;3.30;1.60;;;;;;;-139.48;100.00;61774.03;4994223;28;20053;-66
2021/05/16 05:11:10;;;;;;;5.47;2.00;;;;;;;-139.48;100.00;61774.03;4979839;28;20058;-65
2021/05/16 05:13:53;;;;;;;4.13;1.65;;;;;;;-139.48;100.00;61774.03;4993130;28;20053;-66
2021/05/16 05:16:37;;;;;;;6.53;2.42;;;;;;;-139.48;100.00;61774.03;4993052;28;20053;-66
2021/05/16 05:19:21;;;;;;;8.40;1.92;;;;;;;-139.48;100.00;61774.03;4993149;28;20070;-66
2021/05/16 05:22:05;;;;;;;5.15;1.45;;;;;;;-139.48;100.00;61774.03;4993109;28;20101;-67
2021/05/16 05:24:49;;;;;;;4.00;1.50;;;;;;;-139.48;100.00;61774.03;4993106;28;20531;-65
2021/05/16 05:27:33;;;;;;;6.32;1.33;;;;;;;-139.48;100.00;61774.03;4993919;28;20053;-66
2021/05/16 05:30:17;;;;;;;2.65;1.55;;;;;;;-139.48;100.00;61774.03;4993023;28;20092;-66
2021/05/16 05:33:00;;;;;;;4.15;1.83;;;;;;;-139.48;100.00;61774.03;4992756;28;20534;-66
2021/05/16 05:35:45;;;;;;;5.05;2.10;;;;;;;-139.48;100.00;61774.03;4992737;28;20045;-66
2021/05/16 05:38:29;;;;;;;6.28;2.00;;;;;;;-139.48;100.00;61774.03;4979245;28;20052;-67
2021/05/16 05:41:14;;;;;;;5.20;2.22;;;;;;;-139.48;100.00;61774.03;4979226;28;20049;-67
2021/05/16 05:43:58;;;;;;;5.88;2.05;;;;;;;-139.48;100.00;61774.03;4979342;28;20140;-64
2021/05/16 05:46:42;;;;;;;4.85;2.28;;;;;;;-139.48;100.00;61774.03;4993509;28;20104;-67
2021/05/16 05:49:25;;;;;;;4.85;2.10;;;;;;;-139.48;100.00;61774.03;4983075;28;20478;-67
2021/05/16 05:52:09;;;;;;;7.57;2.20;;;;;;;-139.48;100.00;61774.03;4997835;28;20049;-66
2021/05/16 05:54:53;;;;;;;6.07;3.25;;;;;;;-139.48;100.00;61774.03;4983016;28;20045;-66
2021/05/16 05:57:37;;;;;;;4.68;1.95;;;;;;;-139.48;100.00;61774.03;4996281;28;20188;-66
2021/05/16 06:00:21;;;;;;;7.22;2.20;;;;;;;-139.48;100.00;61774.03;4982632;28;20053;-67
2021/05/16 06:03:05;;;;;;;;;;;;;;;-139.48;100.00;61774.03;4997064;28;20073;-66
2021/05/16 06:05:49;;;;;;;4.90;2.30;;;;;;;-139.48;100.00;61774.03;4996874;28;19955;-66
2021/05/16 06:08:33;;;;;;;4.45;1.80;;;;;;;-139.48;100.00;61774.03;4996202;28;20356;-66
2021/05/16 06:11:17;;;;;;;5.90;2.45;;;;;;;-139.48;100.00;61774.03;4996435;28;20049;-67
2021/05/16 06:14:01;;;;;;;8.65;1.85;;;;;;;-139.48;100.00;61774.03;4997464;28;20415;-67
2021/05/16 06:16:45;;;;;;;3.22;1.80;;;;;;;-139.48;100.00;61774.03;4996272;28;20125;-67
2021/05/16 06:19:29;;;;;;;5.22;1.55;;;;;;;-139.48;100.00;61774.03;4982546;28;20077;-67
2021/05/16 06:22:14;;;;;;;5.75;1.88;;;;;;;-139.48;100.00;61774.03;4997252;28;20068;-67
2021/05/16 06:24:58;;;;;;;7.72;2.08;;;;;;;-139.48;100.00;61774.03;4996234;28;20061;-67
2021/05/16 06:27:42;;;;;;;2.55;1.50;;;;;;;-139.48;100.00;61774.03;4995901;28;20096;-67
2021/05/16 06:30:27;;;;;;;4.93;1.70;;;;;;;-139.48;100.00;61774.03;4982602;28;20065;-67
2021/05/16 06:33:11;;;;;;;7.22;1.85;;;;;;;-139.48;100.00;61774.03;4982039;28;20077;-67
2021/05/16 06:35:54;;;;;;;3.40;1.67;;;;;;;-139.48;100.00;61774.03;4995765;28;20117;-68
2021/05/16 06:38:38;;;;;;;5.35;1.63;;;;;;;-139.48;100.00;61774.03;4997254;28;20064;-67
2021/05/16 06:41:23;;;;;;;7.60;1.98;;;;;;;-139.48;100.00;61774.03;4996904;28;20089;-67
2021/05/16 06:44:07;;;;;;;5.00;1.60;;;;;;;-139.48;100.00;61774.03;4996866;28;20053;-67
2021/05/16 06:46:51;;;;;;;5.80;1.70;;;;;;;-139.48;100.00;61774.03;4981653;28;20518;-67
2021/05/16 06:49:36;;;;;;;3.35;1.83;;;;;;;-139.48;100.00;61774.03;4995635;28;20451;-65
2021/05/16 06:52:21;;;;;;;3.90;1.70;;;;;;;-139.48;100.00;61774.03;4996565;28;20142;-66
2021/05/16 06:55:07;;;;;;;6.60;1.40;;;;;;;-139.48;100.00;61774.03;4982092;28;20125;-68
2021/05/16 06:57:51;;;;;;;4.85;1.20;;;;;;;-139.48;100.00;61774.03;4995967;28;20561;-67
2021/05/16 07:00:35;;;;;;;3.55;1.40;;;;;;;-139.48;100.00;61774.03;4995519;28;20515;-66
2021/05/16 07:03:19;;;;;;;3.38;1.77;;;;;;;-139.48;100.00;61774.03;4996299;28;20208;-67
2021/05/16 07:06:04;;;;;;;5.95;1.95;;;;;;;-139.48;100.00;61774.03;4995143;28;20096;-66
2021/05/16 07:08:48;;;;;;;7.35;1.73;;;;;;;-139.48;100.00;61774.03;4981584;28;20480;-64
2021/05/16 07:11:32;;;;;;;3.25;1.50;;;;;;;-139.48;100.00;61774.03;4981880;28;20092;-67
2021/05/16 07:14:16;;;;;;;3.22;1.25;;;;;;;-139.48;100.00;61774.03;4995247;28;20510;-67
2021/05/16 07:17:00;;;;;;;4.03;1.27;;;;;;;-139.48;100.00;61774.03;4995123;28;20113;-67
2021/05/16 07:19:44;;;;;;;5.93;1.30;;;;;;;-139.48;100.00;61774.03;4994911;28;20132;-67
2021/05/16 07:22:27;;;;;;;1.98;1.10;;;;;;;-139.48;100.00;61774.03;4996378;28;20080;-67
2021/05/16 07:25:12;;;;;;;3.30;1.50;;;;;;;-139.48;100.00;61774.03;4996145;28;20506;-67
2021/05/16 07:27:58;;;;;;;7.75;1.80;;;;;;;-139.48;100.00;61774.03;4994825;28;20573;-67
2021/05/16 07:30:42;;;;;;;5.25;1.35;;;;;;;-139.48;100.00;61774.03;4995709;28;20088;-67
2021/05/16 07:33:26;;;;;;;5.13;1.77;;;;;;;-139.48;100.00;61774.03;4994998;28;20108;-68
2021/05/16 07:36:09;;;;;;;4.30;1.25;;;;;;;-139.48;100.00;61774.03;4994551;28;20053;-66
2021/05/16 07:38:54;;;;;;;3.55;1.55;;;;;;;-139.48;100.00;61774.03;4994512;28;20057;-65
2021/05/16 07:41:38;;;;;;;5.03;1.73;;;;;;;-139.48;100.00;61774.03;4993972;28;20054;-66
2021/05/16 07:44:22;;;;;;;7.35;1.95;;;;;;;-139.48;100.00;61774.03;4994870;28;20120;-67
2021/05/16 07:47:09;;;;;;;3.63;1.45;;;;;;;-139.48;100.00;61774.03;4993750;28;20044;-65
2021/05/16 07:49:52;;;;;;;4.65;1.80;;;;;;;-139.48;100.00;61774.03;4994048;28;20041;-66
2021/05/16 07:52:37;;;;;;;5.00;1.52;;;;;;;-139.48;100.00;61774.03;4993844;28;20053;-64
2021/05/16 07:55:20;;;;;;;3.17;1.35;;;;;;;-139.48;100.00;61774.03;4994451;28;20073;-67
2021/05/16 07:58:04;;;;;;;7.07;1.42;;;;;;;-139.48;100.00;61774.03;4993856;28;20105;-64
2021/05/16 08:00:48;;;;;;;5.18;1.25;;;;;;;-139.48;100.00;61774.03;4995206;28;20045;-67
2021/05/16 08:03:32;;;;;;;8.43;2.25;;;;;;;-139.48;100.00;61774.03;4994556;28;20057;-69
2021/05/16 08:06:16;;;;;;;7.85;1.63;;;;;;;-139.48;100.00;61774.03;4994645;28;20061;-67
2021/05/16 08:09:01;;;;;;;5.28;1.85;;;;;;;-139.48;100.00;61774.03;4979427;28;20093;-67
2021/05/16 08:11:44;;;;;;;9.98;2.20;;;;;;;-139.48;100.00;61774.03;4979839;28;20117;-65
2021/05/16 08:14:28;;;;;;;7.03;1.67;;;;;;;-139.48;100.00;61774.03;4979696;28;20514;-67
2021/05/16 08:17:14;;;;;;;8.82;1.85;;;;;;;-139.48;100.00;61774.03;4993291;28;20177;-67
2021/05/16 08:19:58;;;;;;;11.07;1.52;;;;;;;-139.48;100.00;61774.03;4993539;28;20130;-65
2021/05/16 08:22:42;;;;;;;3.90;1.75;;;;;;;-139.48;100.00;61774.03;4979743;28;20068;-67
2021/05/16 08:25:26;;;;;;;8.02;1.90;;;;;;;-139.48;100.00;61774.03;4994675;28;20049;-67
2021/05/16 08:28:10;;;;;;;11.43;2.08;;;;;;;-139.48;100.00;61774.03;4979426;28;20058;-66
2021/05/16 08:30:54;;;;;;;3.28;1.40;;;;;;;-139.48;100.00;61774.03;4979554;28;20057;-67
2021/05/16 08:33:37;;;;;;;5.22;1.90;;;;;;;-139.48;100.00;61774.03;4992970;28;20055;-66
2021/05/16 08:36:21;;;;;;;5.03;1.75;;;;;;;-139.48;100.00;61774.03;4980542;28;20081;-67
2021/05/16 08:39:07;;;;;;;8.15;1.33;;;;;;;-139.48;100.00;61774.03;4993015;28;20053;-67
2021/05/16 08:41:51;;;;;;;7.55;2.10;;;;;;;-139.48;100.00;61774.03;4992735;28;20053;-67
2021/05/16 08:44:35;;;;;;;4.78;1.83;;;;;;;-139.48;100.00;61774.03;4992965;28;20049;-67
2021/05/16 08:47:19;;;;;;;7.40;1.90;;;;;;;-139.48;100.00;61774.03;4993722;28;20136;-67
2021/05/16 08:50:05;;;;;;;9.75;1.67;;;;;;;-139.48;100.00;61774.03;4979093;28;20073;-66
2021/05/16 08:52:49;;;;;;;7.43;2.00;;;;;;;-139.48;100.00;61774.03;4992592;28;20088;-67
2021/05/16 08:55:36;;;;;;;7.47;1.52;;;;;;;-139.48;100.00;61774.03;4992867;28;20049;-68
2021/05/16 08:58:19;;;;;;;3.05;1.25;;;;;;;-139.48;100.00;61774.03;4993452;28;20144;-66
2021/05/16 09:01:21;;;;;;;10.25;2.00;;;;;;;-139.48;100.00;61774.03;4993959;28;20100;-66
2021/05/16 09:04:21;;;;;;;7.60;1.45;;;;;;;-139.48;100.00;61774.03;4992549;28;20057;-67
2021/05/16 09:07:06;;;;;;;9.13;1.65;;;;;;;-139.48;100.00;61774.03;4992578;28;20133;-66
2021/05/16 09:09:50;;;;;;;6.45;1.67;;;;;;;-139.48;100.00;61774.03;4992332;28;20093;-66
2021/05/16 09:12:38;;;;;;;9.65;2.17;;;;;;;-139.48;100.00;61774.03;4992560;28;20140;-67
2021/05/16 09:15:22;;;;;;;5.82;1.33;;;;;;;-139.48;100.00;61774.03;4992540;28;20141;-66
2021/05/16 09:18:06;;;;;;;6.20;1.95;;;;;;;-139.48;100.00;61774.03;4992234;28;20130;-66
2021/05/16 09:20:50;;;;;;;6.28;1.70;;;;;;;-139.48;100.00;61774.03;4992073;28;20053;-67
2021/05/16 09:23:34;;;;;;;5.93;1.90;;;;;;;-139.48;100.00;61774.03;4978518;28;20073;-67
2021/05/16 09:26:18;;;;;;;5.25;1.60;;;;;;;-139.48;100.00;61774.03;4992155;28;20057;-67
2021/05/16 09:29:24;;;;;;;8.63;1.90;;;;;;;-139.48;100.00;61774.03;4992332;28;20052;-67
2021/05/16 09:32:08;;;;;;;9.07;2.15;;;;;;;-139.48;100.00;61774.03;4992108;28;20133;-67
2021/05/16 09:34:53;;;;;;;11.25;2.35;;;;;;;-139.48;100.00;61774.03;4978690;28;20053;-67
2021/05/16 09:37:54;;;;;;;7.63;1.85;;;;;;;-139.48;100.00;61774.03;4992243;28;20045;-67
2021/05/16 09:40:46;;;;;;;7.60;1.85;;;;;;;-139.48;100.00;61774.03;4992286;28;20093;-66
2021/05/16 09:43:31;;;;;;;4.65;1.60;;;;;;;-139.48;100.00;61774.03;4993066;28;20053;-67
2021/05/16 09:46:16;;;;;;;10.13;1.70;;;;;;;-139.48;100.00;61774.03;4991976;28;20053;-67
2021/05/16 09:49:00;;;;;;;8.13;1.63;;;;;;;-139.48;100.00;61774.03;4993228;28;20108;-67
2021/05/16 09:51:44;;;;;;;2.80;1.50;;;;;;;-139.48;100.00;61774.03;4978789;28;20049;-67
2021/05/16 09:54:28;;;;;;;8.82;2.00;;;;;;;-139.48;100.00;61774.03;4992938;28;20141;-67
2021/05/16 09:57:12;;;;;;;9.25;1.90;;;;;;;-139.48;100.00;61774.03;4992091;28;20056;-68
2021/05/16 09:59:56;;;;;;;7.18;2.30;;;;;;;-139.48;100.00;61774.03;4978460;28;20118;-67
2021/05/16 10:02:41;;;;;;;10.40;2.15;;;;;;;-139.48;100.00;61774.03;4992110;28;20524;-67
2021/05/16 10:05:25;;;;;;;5.85;1.83;;;;;;;-139.48;100.00;61774.03;4992127;28;20132;-68
2021/05/16 10:08:09;;;;;;;8.18;1.70;;;;;;;-139.48;100.00;61774.03;4992942;28;20049;-67
2021/05/16 10:10:53;;;;;;;4.88;1.27;;;;;;;-139.48;100.00;61774.03;4978038;28;20053;-68
2021/05/16 10:13:40;;;;;;;4.50;1.48;;;;;;;-139.48;100.00;61774.03;4992799;28;20101;-68
2021/05/16 10:16:24;;;;;;;6.60;1.75;;;;;;;-139.48;100.00;61774.03;4991866;28;20061;-68
2021/05/16 10:19:11;;;;;;;9.40;2.03;;;;;;;-139.48;100.00;61774.03;4978453;28;20126;-67
2021/05/16 10:22:08;;;;;;;7.72;1.80;;;;;;;-139.48;100.00;61774.03;4992994;28;20094;-67
2021/05/16 10:24:53;;;;;;;5.57;1.90;;;;;;;-139.48;100.00;61774.03;4992831;28;20048;-67
2021/05/16 10:27:45;;;;;;;9.88;1.48;;;;;;;-139.48;100.00;61774.03;4991609;28;20162;-66
2021/05/16 10:30:29;;;;;;;8.32;2.22;;;;;;;-139.48;100.00;61774.03;4992024;28;20081;-67
2021/05/16 10:33:48;;;;;;;8.65;1.80;;;;;;;-139.48;100.00;61774.03;4993021;28;20566;-67
2021/05/16 10:36:44;;;;;;;6.35;1.60;;;;;;;-139.48;100.00;61774.03;4955531;29;20127;-67
2021/05/16 10:39:43;;;;;;;6.22;1.40;;;;;;;-139.48;100.00;61774.03;4981441;28;20466;-67
2021/05/16 10:42:34;;;;;;;6.65;2.03;;;;;;;-139.48;100.00;61774.03;4996089;28;20213;-66
2021/05/16 10:45:22;;;;;;;6.03;1.70;;;;;;;-139.48;100.00;61774.03;4981530;28;20056;-67
2021/05/16 10:48:16;;;;;;;6.13;2.08;;;;;;;-139.48;100.00;61774.03;4994752;28;20057;-67
2021/05/16 10:51:00;;;;;;;9.75;1.98;;;;;;;-139.48;100.00;61774.03;4981480;28;20069;-66
2021/05/16 10:53:44;;;;;;;5.18;1.50;;;;;;;-139.48;100.00;61774.03;4995402;28;20053;-67
2021/05/16 10:56:28;;;;;;;9.85;1.80;;;;;;;-139.48;100.00;61774.03;4994908;28;20092;-66
2021/05/16 10:59:38;;;;;;;4.93;1.90;;;;;;;-139.48;100.00;61774.03;4981109;28;20387;-67
2021/05/16 11:02:59;;;;;;;7.70;1.52;;;;;;;-139.48;100.00;61774.03;4994904;28;20048;-66
2021/05/16 11:05:46;;;;;;;4.80;1.70;;;;;;;-139.48;100.00;61774.03;4994803;28;20045;-65
2021/05/16 11:08:33;;;;;;;3.15;1.55;;;;;;;-139.48;100.00;61774.03;4994785;28;20085;-66
2021/05/16 11:11:47;;;;;;;2.63;1.33;;;;;;;-139.48;100.00;61774.03;4996088;28;20093;-66
2021/05/16 11:14:35;;;;;;;4.95;1.60;;;;;;;-139.48;100.00;61774.03;4994743;28;20045;-67
2021/05/16 11:17:26;;;;;;;4.70;1.80;;;;;;;-139.48;100.00;61774.03;4995853;28;20573;-67
2021/05/16 11:20:11;;;;;;;4.03;2.05;;;;;;;-139.48;100.00;61774.03;4981771;28;20446;-67
2021/05/16 11:22:56;;;;;;;5.05;1.83;;;;;;;-139.48;100.00;61774.03;4994595;28;20049;-66
2021/05/16 11:25:40;;;;;;;3.53;1.58;;;;;;;-139.48;100.00;61774.03;4995439;28;20415;-65
2021/05/16 11:28:26;;;;;;;7.65;1.73;;;;;;;-139.48;100.00;61774.03;4995394;28;20108;-67
2021/05/16 11:31:12;;;;;;;3.85;1.63;;;;;;;-139.48;100.00;61774.03;4994144;28;20419;-67
2021/05/16 11:34:00;;;;;;;8.55;1.55;;;;;;;-139.48;100.00;61774.03;4980741;28;20395;-66
2021/05/16 11:36:44;;;;;;;4.72;1.30;;;;;;;-139.48;100.00;61774.03;4994213;28;20076;-66
2021/05/16 11:39:28;;;;;;;;;;;;;;;-139.48;100.00;61774.03;4994463;28;20077;-67
2021/05/16 11:42:12;;;;;;;6.53;1.60;;;;;;;-139.48;100.00;61774.03;4995058;28;19988;-67
2021/05/16 11:44:56;;;;;;;;;;;;;;;-139.48;100.00;61774.03;4993319;28;20050;-67
2021/05/16 11:47:42;;;;;;;5.50;1.63;;;;;;;-139.48;100.00;61774.03;4993781;28;19920;-66
2021/05/16 11:50:41;;;;;;;6.35;1.38;;;;;;;-139.48;100.00;61774.03;4994026;28;20092;-67
2021/05/16 11:53:26;;;;;;;4.40;1.70;;;;;;;-139.48;100.00;61774.03;4993989;28;20053;-66
2021/05/16 11:56:10;;;;;;;5.05;1.60;;;;;;;-139.48;100.00;61774.03;4993760;28;20104;-67
2021/05/16 11:58:55;;;;;;;;;;;;;;;-139.48;100.00;61774.03;4994502;28;20088;-67
2021/05/16 12:01:45;;;;;;;3.15;1.52;;;;;;;-139.48;100.00;61774.03;4994110;28;19937;-67
2021/05/16 12:04:37;;;;;;;4.13;1.50;;;;;;;-139.48;100.00;61774.03;4993959;28;20081;-66
2021/05/16 12:07:28;;;;;;;6.85;1.73;;;;;;;-139.48;100.00;61774.03;4993478;28;20081;-66
2021/05/16 12:10:19;;;;;;;2.08;1.10;;;;;;;-139.48;100.00;61774.03;4993924;28;20065;-66
2021/05/16 12:13:23;;;;;;;6.78;1.85;;;;;;;-139.48;100.00;61774.03;4994454;28;20162;-65
2021/05/16 12:16:15;;;;;;;7.40;1.83;;;;;;;-139.48;100.00;61774.03;4979642;28;20129;-65
2021/05/16 12:18:59;;;;;;;5.82;1.80;;;;;;;-139.48;100.00;61774.03;4994538;28;20451;-66
2021/05/16 12:21:43;;;;;;;4.70;1.60;;;;;;;-139.48;100.00;61774.03;4994524;28;20093;-66
2021/05/16 12:24:32;;;;;;;6.60;1.55;;;;;;;-139.48;100.00;61774.03;4979447;28;20203;-66
2021/05/16 12:27:18;;;;;;;3.83;1.20;;;;;;;-139.48;100.00;61774.03;4993095;28;20069;-66
2021/05/16 12:30:04;;;;;;;3.38;1.50;;;;;;;-139.48;100.00;61774.03;4993153;28;20096;-66
2021/05/16 12:32:51;;;;;;;4.93;1.52;;;;;;;-139.48;100.00;61774.03;4993178;28;20050;-67